Time;durP1;ratioP1;P1;durP2;ratioP2;P2;SDS_P1;SDS_P2;PMS_P1;PMS_P2;Temp;Humidity;BMP_temperature;BMP_pressure;BME280_temperature;BME280_humidity;BME280_pressure;Samples;Min_cycle;Max_cycle;Signal;HPM_P1;HPM_P2
2021/12/07 00:00:29;;;;;;;11.80;8.37;;;3.40;87.20;;;;;;4971866;28;20458;-70
2021/12/07 00:02:55;;;;;;;11.07;7.53;;;3.40;86.50;;;;;;4971940;28;20391;-70
2021/12/07 00:05:21;;;;;;;11.90;8.35;;;3.40;89.10;;;;;;4971665;28;20967;-70
2021/12/07 00:07:47;;;;;;;12.55;8.27;;;3.50;88.30;;;;;;4972008;28;20395;-70
2021/12/07 00:10:15;;;;;;;12.82;8.50;;;3.50;88.60;;;;;;4971907;28;20471;-71
2021/12/07 00:12:44;;;;;;;12.80;8.98;;;3.50;89.00;;;;;;4971943;28;20416;-71
2021/12/07 00:15:12;;;;;;;10.80;8.40;;;3.50;90.00;;;;;;4971618;28;20395;-70
2021/12/07 00:17:38;;;;;;;11.50;8.70;;;3.50;89.70;;;;;;4971982;28;20392;-70
2021/12/07 00:20:10;;;;;;;11.93;8.55;;;3.50;89.00;;;;;;4971795;28;20495;-70
2021/12/07 00:22:38;;;;;;;13.48;9.30;;;3.50;89.90;;;;;;4952903;28;20867;-70
2021/12/07 00:25:05;;;;;;;12.55;9.10;;;3.60;89.80;;;;;;4960703;28;20778;-71
2021/12/07 00:27:30;;;;;;;11.68;8.90;;;3.60;90.20;;;;;;4971773;28;20388;-71
2021/12/07 00:29:56;;;;;;;13.30;9.13;;;3.70;90.40;;;;;;4971603;28;20758;-71
2021/12/07 00:35:17;;;;;;;12.87;9.60;;;3.70;92.90;;;;;;4974644;28;20407;-71
2021/12/07 00:37:48;;;;;;;13.85;9.50;;;3.80;92.10;;;;;;4975754;28;20392;-70
2021/12/07 00:40:17;;;;;;;12.98;8.80;;;3.80;88.50;;;;;;4975486;28;20396;-71
2021/12/07 00:42:43;;;;;;;13.02;8.32;;;3.90;88.30;;;;;;4975594;28;20392;-70
2021/12/07 00:45:11;;;;;;;11.00;8.10;;;3.90;86.60;;;;;;4975052;28;20454;-72
2021/12/07 00:47:37;;;;;;;11.70;7.95;;;4.00;86.70;;;;;;4971437;28;20477;-72
2021/12/07 00:50:05;;;;;;;12.00;8.00;;;4.00;83.80;;;;;;4973153;28;20538;-71
2021/12/07 00:52:30;;;;;;;10.15;7.65;;;4.00;81.70;;;;;;4975872;28;20474;-70
2021/12/07 00:54:56;;;;;;;11.55;8.10;;;4.00;81.80;;;;;;4978463;28;20463;-72
2021/12/07 00:57:24;;;;;;;10.10;7.18;;;4.00;83.10;;;;;;4978997;28;20404;-71
2021/12/07 00:59:50;;;;;;;9.48;6.85;;;4.00;83.30;;;;;;4981472;28;20464;-71
2021/12/07 01:02:16;;;;;;;12.20;7.40;;;4.10;80.90;;;;;;4981080;28;20749;-72
2021/12/07 01:04:50;;;;;;;8.90;6.40;;;4.10;79.90;;;;;;4976129;28;20450;-71
2021/12/07 01:07:33;;;;;;;6.57;5.07;;;4.20;74.80;;;;;;4975393;28;20396;-71
2021/12/07 01:26:23;;;;;;;7.10;5.70;;;3.80;71.70;;;;;;4979122;28;20427;-70
2021/12/07 01:28:49;;;;;;;6.87;5.63;;;3.70;73.20;;;;;;4979096;28;20384;-70
2021/12/07 01:31:22;;;;;;;9.83;7.00;;;3.60;73.70;;;;;;4978009;28;20968;-70
2021/12/07 02:01:55;;;;;;;20.80;12.30;;;4.10;79.90;;;;;;4993932;28;20587;-74
2021/12/07 02:04:21;;;;;;;20.35;11.55;;;4.20;83.30;;;;;;4993806;28;20395;-74
2021/12/07 02:06:47;;;;;;;20.67;11.40;;;4.10;82.00;;;;;;4993672;28;20402;-74
2021/12/07 02:09:12;;;;;;;23.58;13.43;;;3.90;86.30;;;;;;4993227;28;20438;-77
2021/12/07 02:11:45;;;;;;;26.00;14.70;;;3.80;98.80;;;;;;4991007;28;20830;-74
2021/12/07 02:14:16;;;;;;;26.85;15.93;;;3.70;98.50;;;;;;4979090;28;20388;-74
2021/12/07 02:16:50;;;;;;;32.58;18.70;;;3.80;97.50;;;;;;4973616;28;20388;-73
2021/12/07 02:19:17;;;;;;;33.78;19.83;;;3.70;99.90;;;;;;4973900;28;20407;-75
2021/12/07 02:21:42;;;;;;;34.20;19.60;;;3.80;99.90;;;;;;4976801;28;20523;-74
2021/12/07 02:24:08;;;;;;;26.38;14.00;;;3.90;99.90;;;;;;4979164;28;20882;-73
2021/12/07 02:26:35;;;;;;;31.00;18.10;;;4.10;99.90;;;;;;4974820;28;20507;-73
2021/12/07 02:29:02;;;;;;;29.65;18.15;;;4.10;98.50;;;;;;4974177;28;20396;-74
2021/12/07 02:31:28;;;;;;;23.88;15.43;;;4.10;99.90;;;;;;4973720;28;20399;-73
2021/12/07 02:33:55;;;;;;;19.17;13.70;;;4.10;99.90;;;;;;4974091;28;20392;-73
2021/12/07 02:36:20;;;;;;;22.30;14.02;;;4.20;99.90;;;;;;4974276;28;20397;-75
2021/12/07 02:38:46;;;;;;;19.92;12.88;;;4.20;97.60;;;;;;4974890;28;20479;-73
2021/12/07 02:41:12;;;;;;;20.42;13.55;;;4.40;93.80;;;;;;4974406;28;20397;-73
2021/12/07 02:43:38;;;;;;;19.17;12.60;;;4.40;94.50;;;;;;4974323;28;20536;-75
2021/12/07 02:46:03;;;;;;;22.50;12.70;;;4.40;95.30;;;;;;4973412;28;20897;-74
2021/12/07 02:48:29;;;;;;;27.00;14.40;;;4.40;96.80;;;;;;4980227;28;20861;-74
2021/12/07 02:50:55;;;;;;;26.83;14.50;;;4.50;95.00;;;;;;4973320;28;20901;-74
2021/12/07 02:53:25;;;;;;;24.87;11.73;;;4.60;97.20;;;;;;4973101;28;20384;-74
2021/12/07 02:55:55;;;;;;;24.08;13.45;;;4.80;92.00;;;;;;4973432;28;20388;-75
2021/12/07 02:58:21;;;;;;;16.25;9.88;;;4.80;92.70;;;;;;4971101;28;20408;-73
2021/12/07 03:00:58;;;;;;;25.60;14.95;;;4.60;99.90;;;;;;4972956;28;20400;-74
2021/12/07 03:03:23;;;;;;;23.25;9.48;;;4.50;99.90;;;;;;4981234;28;20997;-73
2021/12/07 03:06:05;;;;;;;27.73;15.30;;;4.30;99.90;;;;;;4991425;28;20520;-75
2021/12/07 03:27:23;;;;;;;38.70;14.93;;;4.60;99.90;;;;;;4993320;28;20300;-74
2021/12/07 03:29:48;;;;;;;35.87;16.20;;;4.60;99.90;;;;;;4993418;28;20169;-74
2021/12/07 03:32:14;;;;;;;39.10;17.23;;;4.60;99.90;;;;;;4993191;28;20173;-75
2021/12/07 03:34:39;;;;;;;56.77;16.90;;;4.60;99.90;;;;;;4993524;28;20169;-74
2021/12/07 03:37:05;;;;;;;43.83;18.60;;;4.60;99.90;;;;;;4992692;28;20212;-74
2021/12/07 03:39:31;;;;;;;39.83;19.70;;;4.70;99.90;;;;;;4993670;28;20601;-74
2021/12/07 03:41:57;;;;;;;35.80;18.97;;;4.60;99.90;;;;;;4994891;28;20897;-73
2021/12/07 03:44:22;;;;;;;39.57;18.70;;;4.60;99.90;;;;;;4995810;28;20228;-74
2021/12/07 03:46:48;;;;;;;35.03;17.60;;;4.60;99.90;;;;;;4998012;28;20255;-74
2021/12/07 03:49:14;;;;;;;49.00;19.07;;;4.70;99.90;;;;;;4978608;28;20280;-73
2021/12/07 03:51:40;;;;;;;33.43;16.90;;;4.70;99.90;;;;;;4975806;28;20268;-74
2021/12/07 03:54:06;;;;;;;35.37;18.97;;;4.70;99.90;;;;;;4975941;28;20200;-74
2021/12/07 03:56:32;;;;;;;50.25;20.15;;;4.60;99.90;;;;;;4973321;28;20432;-73
2021/12/07 03:58:58;;;;;;;44.57;20.57;;;4.60;99.90;;;;;;4973123;28;20717;-74
2021/12/07 04:01:24;;;;;;;47.20;21.83;;;4.60;99.90;;;;;;4972750;28;20926;-74
2021/12/07 04:03:52;;;;;;;42.20;20.57;;;4.40;99.90;;;;;;4984191;28;20975;-74
2021/12/07 04:06:19;;;;;;;36.15;19.80;;;4.30;99.90;;;;;;4992589;28;20470;-74
2021/12/07 04:08:45;;;;;;;35.88;17.77;;;4.40;99.90;;;;;;4991491;28;20229;-74
2021/12/07 04:11:11;;;;;;;45.37;17.23;;;4.30;99.90;;;;;;4992286;28;20174;-74
2021/12/07 04:13:37;;;;;;;41.70;17.70;;;4.20;99.90;;;;;;4991083;28;20558;-74
2021/12/07 04:16:06;;;;;;;36.50;16.90;;;4.30;99.90;;;;;;4992498;28;20181;-75
2021/12/07 04:18:31;;;;;;;37.92;17.85;;;4.20;99.90;;;;;;4992558;28;20208;-74
2021/12/07 04:20:57;;;;;;;26.90;11.93;;;4.30;99.90;;;;;;4992630;28;20189;-74
2021/12/07 04:23:23;;;;;;;36.10;14.53;;;4.40;99.90;;;;;;4992012;28;20181;-73
2021/12/07 04:25:49;;;;;;;35.53;13.55;;;4.30;99.90;;;;;;4992296;28;20528;-74
2021/12/07 04:28:15;;;;;;;33.43;9.73;;;4.30;99.90;;;;;;4992659;28;20201;-74
2021/12/07 04:30:42;;;;;;;25.93;10.30;;;4.40;99.90;;;;;;4992351;28;20264;-75
2021/12/07 04:33:10;;;;;;;27.08;9.52;;;4.40;99.90;;;;;;4991956;28;20173;-74
2021/12/07 04:35:39;;;;;;;32.20;9.75;;;4.50;99.90;;;;;;4992496;28;20342;-74
2021/12/07 04:38:05;;;;;;;26.23;8.35;;;4.50;99.90;;;;;;4992205;28;20536;-74
2021/12/07 04:40:32;;;;;;;25.35;6.60;;;4.50;99.90;;;;;;4992488;28;20188;-74
2021/12/07 04:42:59;;;;;;;19.50;7.57;;;4.60;99.90;;;;;;4991899;28;20297;-74
2021/12/07 04:59:11;;;;;;;18.38;5.80;;;4.80;99.90;;;;;;4993722;28;20214;-75
2021/12/07 05:01:37;;;;;;;20.60;5.95;;;4.70;99.90;;;;;;4992802;28;20181;-74
2021/12/07 05:04:10;;;;;;;20.48;7.45;;;4.60;99.90;;;;;;4980380;28;20196;-75
2021/12/07 05:06:41;;;;;;;36.80;6.15;;;4.50;99.90;;;;;;4972982;28;20241;-74
2021/12/07 05:10:12;;;;;;;28.10;6.53;;;4.50;99.90;;;;;;4974202;28;20186;-74
2021/12/07 05:12:19;;;;;;;38.50;6.70;;;4.40;99.90;;;;;;4969838;28;20193;-75
2021/12/07 05:14:42;;;;;;;23.60;7.03;;;4.40;99.90;;;;;;4973134;28;20174;-74
2021/12/07 05:38:40;;;;;;;13.45;7.55;;;4.50;99.90;;;;;;4976240;28;20232;-74
2021/12/07 05:41:07;;;;;;;23.70;7.80;;;4.40;99.90;;;;;;4976164;28;20174;-74
2021/12/07 05:43:34;;;;;;;18.50;5.70;;;4.40;99.90;;;;;;4976045;28;20186;-76
2021/12/07 05:46:01;;;;;;;28.88;7.47;;;4.40;99.90;;;;;;4976156;28;20295;-75
2021/12/07 05:48:26;;;;;;;30.33;8.07;;;4.40;99.90;;;;;;4981517;28;20201;-74
2021/12/07 05:50:52;;;;;;;29.87;5.73;;;4.40;99.90;;;;;;4975906;28;20180;-74
2021/12/07 05:53:18;;;;;;;40.80;6.57;;;4.40;99.90;;;;;;4975424;28;20234;-73
2021/12/07 05:55:43;;;;;;;28.63;7.50;;;4.40;99.90;;;;;;4976863;28;20188;-74
2021/12/07 05:58:09;;;;;;;44.83;6.90;;;4.40;99.90;;;;;;4977374;28;20224;-74
2021/12/07 06:00:36;;;;;;;34.00;5.77;;;4.40;99.90;;;;;;4976107;28;20182;-74
2021/12/07 06:03:05;;;;;;;21.83;7.20;;;4.30;99.90;;;;;;4980164;28;20212;-74
2021/12/07 06:05:32;;;;;;;32.53;7.65;;;4.30;99.90;;;;;;4993351;28;20208;-75
2021/12/07 06:07:58;;;;;;;30.15;6.00;;;4.30;99.90;;;;;;4993009;28;20255;-74
2021/12/07 06:10:24;;;;;;;22.60;6.47;;;4.30;99.90;;;;;;4993177;28;20181;-74
2021/12/07 06:12:50;;;;;;;19.48;5.30;;;4.30;99.90;;;;;;4996737;28;20179;-74
2021/12/07 06:15:19;;;;;;;19.53;5.90;;;4.30;99.90;;;;;;4994521;28;20174;-73
2021/12/07 06:17:46;;;;;;;26.35;5.20;;;4.20;99.90;;;;;;4994340;28;20424;-73
2021/12/07 06:20:11;;;;;;;15.05;4.80;;;4.30;99.90;;;;;;4994566;28;20252;-75
2021/12/07 06:22:37;;;;;;;34.40;6.10;;;4.40;99.90;;;;;;4994463;28;20248;-74
2021/12/07 06:25:04;;;;;;;27.10;5.70;;;4.40;99.90;;;;;;4993102;28;20917;-73
2021/12/07 06:27:29;;;;;;;25.05;5.40;;;4.50;99.90;;;;;;4993484;28;20185;-74
2021/12/07 06:29:56;;;;;;;21.10;6.07;;;4.50;99.90;;;;;;4993026;28;20185;-74
2021/12/07 06:32:22;;;;;;;17.40;5.97;;;4.50;99.90;;;;;;4992957;28;20169;-74
2021/12/07 06:34:47;;;;;;;31.97;6.20;;;4.50;99.90;;;;;;4993954;28;20527;-73
2021/12/07 06:37:13;;;;;;;16.10;5.67;;;4.60;99.90;;;;;;4994664;28;20180;-74
2021/12/07 06:39:38;;;;;;;26.70;5.90;;;4.50;99.90;;;;;;4995686;28;20177;-73
2021/12/07 06:42:04;;;;;;;25.60;5.70;;;4.60;99.80;;;;;;4994043;28;20187;-75
2021/12/07 06:44:30;;;;;;;17.93;4.17;;;4.70;97.90;;;;;;4993771;28;20192;-73
2021/12/07 06:46:55;;;;;;;21.37;6.00;;;4.70;98.70;;;;;;4988511;28;20693;-73
2021/12/07 06:49:21;;;;;;;19.40;4.30;;;4.70;96.80;;;;;;4991523;28;20209;-74
2021/12/07 06:51:48;;;;;;;25.95;5.55;;;4.60;95.10;;;;;;4993274;28;20216;-74
2021/12/07 06:54:14;;;;;;;14.25;5.47;;;4.60;95.90;;;;;;4993458;28;20185;-75
2021/12/07 06:56:40;;;;;;;25.73;5.93;;;4.50;95.50;;;;;;4993459;28;20169;-73
2021/12/07 06:59:06;;;;;;;14.90;5.20;;;4.40;96.10;;;;;;4992938;28;20460;-74
2021/12/07 07:01:32;;;;;;;20.45;4.72;;;4.20;99.70;;;;;;4992828;28;20844;-74
2021/12/07 07:03:58;;;;;;;23.55;5.43;;;4.10;99.90;;;;;;4979632;28;20186;-74
2021/12/07 07:06:24;;;;;;;22.42;7.15;;;4.20;99.90;;;;;;4974168;28;20210;-74
2021/12/07 07:08:50;;;;;;;23.37;7.20;;;4.10;99.90;;;;;;4973623;28;20282;-74
2021/12/07 07:11:17;;;;;;;16.33;5.93;;;4.00;99.90;;;;;;4977712;28;20166;-75
2021/12/07 07:13:44;;;;;;;17.27;5.25;;;4.10;99.90;;;;;;4975394;28;20644;-75
2021/12/07 07:16:10;;;;;;;28.95;6.93;;;4.00;99.90;;;;;;4974221;28;20176;-75
2021/12/07 07:18:35;;;;;;;23.23;6.63;;;4.10;99.90;;;;;;4974574;28;20206;-72
2021/12/07 07:21:02;;;;;;;40.97;12.37;;;3.90;99.90;;;;;;4974416;28;20177;-74
2021/12/07 07:23:29;;;;;;;31.75;8.57;;;4.00;99.90;;;;;;4983074;28;20173;-74
2021/12/07 07:25:55;;;;;;;30.30;7.93;;;4.00;99.90;;;;;;4992922;28;20212;-74
2021/12/07 07:28:26;;;;;;;24.83;7.22;;;3.90;99.90;;;;;;4993093;28;20697;-74
2021/12/07 07:30:52;;;;;;;33.28;9.13;;;4.00;99.90;;;;;;4991702;28;20180;-75
2021/12/07 07:33:18;;;;;;;22.15;8.43;;;3.90;99.90;;;;;;4992472;28;20252;-74
2021/12/07 07:35:44;;;;;;;17.88;6.15;;;3.80;99.90;;;;;;4992813;28;20216;-76
2021/12/07 07:38:10;;;;;;;33.33;9.10;;;3.80;99.90;;;;;;4991273;28;20223;-75
2021/12/07 07:40:36;;;;;;;31.83;7.13;;;3.80;99.90;;;;;;4986493;28;20208;-75
2021/12/07 07:43:02;;;;;;;28.45;7.88;;;3.80;99.90;;;;;;4992749;28;20188;-76
2021/12/07 07:45:28;;;;;;;19.08;6.53;;;3.70;99.90;;;;;;4993338;28;20793;-75
2021/12/07 07:47:54;;;;;;;18.70;7.33;;;3.80;99.90;;;;;;4984632;28;20239;-74
2021/12/07 07:50:21;;;;;;;19.33;5.55;;;3.70;99.90;;;;;;4973229;28;20558;-74
2021/12/07 07:52:46;;;;;;;34.53;8.80;;;3.70;99.90;;;;;;4984657;28;20181;-74
2021/12/07 07:55:13;;;;;;;24.57;6.47;;;3.70;99.90;;;;;;4990973;28;20207;-76
2021/12/07 07:57:39;;;;;;;22.70;5.80;;;3.80;99.90;;;;;;4992798;28;20207;-75
2021/12/07 08:00:09;;;;;;;22.20;6.07;;;3.70;99.90;;;;;;4992930;28;20173;-74
2021/12/07 08:02:34;;;;;;;26.50;6.97;;;3.70;99.90;;;;;;4991666;28;20169;-74
2021/12/07 08:05:00;;;;;;;18.43;6.83;;;3.60;99.90;;;;;;4978731;28;20194;-73
2021/12/07 08:07:26;;;;;;;27.30;6.93;;;3.60;99.90;;;;;;4991435;28;20197;-74
2021/12/07 08:09:51;;;;;;;25.07;5.57;;;3.60;99.90;;;;;;4992782;28;20412;-74
2021/12/07 08:12:17;;;;;;;34.70;6.27;;;3.60;99.90;;;;;;4992435;28;20685;-75
2021/12/07 08:14:43;;;;;;;26.67;6.30;;;3.60;99.90;;;;;;4992438;28;20665;-76
2021/12/07 08:17:08;;;;;;;15.70;5.30;;;3.70;99.90;;;;;;4993015;28;20280;-74
2021/12/07 08:19:34;;;;;;;30.50;6.77;;;3.80;99.90;;;;;;4992739;28;20256;-74
2021/12/07 08:21:59;;;;;;;27.33;5.23;;;3.70;99.90;;;;;;4992549;28;20173;-75
2021/12/07 08:24:25;;;;;;;16.20;5.37;;;3.70;99.90;;;;;;4975417;28;20193;-75
2021/12/07 08:26:51;;;;;;;28.30;7.40;;;3.70;99.90;;;;;;4973911;28;20205;-75
2021/12/07 08:29:17;;;;;;;22.87;5.90;;;3.70;99.90;;;;;;4972843;28;20534;-76
2021/12/07 08:31:43;;;;;;;20.50;4.47;;;3.80;99.90;;;;;;4973267;28;20181;-76
2021/12/07 08:34:09;;;;;;;30.47;6.47;;;3.90;99.50;;;;;;4971988;28;20249;-76
2021/12/07 08:36:35;;;;;;;20.07;5.50;;;4.00;99.10;;;;;;4974173;28;20413;-75
2021/12/07 08:39:01;;;;;;;16.80;5.50;;;3.90;98.00;;;;;;4981979;28;20197;-73
2021/12/07 08:41:27;;;;;;;20.20;5.60;;;4.00;96.50;;;;;;4978694;28;20996;-74
2021/12/07 08:43:52;;;;;;;21.55;4.72;;;4.00;94.00;;;;;;4989340;28;20429;-76
2021/12/07 08:46:18;;;;;;;17.27;4.90;;;4.10;92.50;;;;;;4992702;28;20674;-73
2021/12/07 08:48:44;;;;;;;26.60;4.80;;;4.10;92.50;;;;;;4977323;28;20270;-75
2021/12/07 08:51:12;;;;;;;16.50;4.23;;;4.20;92.60;;;;;;4971889;28;20417;-74
2021/12/07 08:53:45;;;;;;;17.65;4.63;;;4.20;91.50;;;;;;4990299;28;20213;-76
2021/12/07 09:01:39;;;;;;;14.30;4.22;;;4.80;83.40;;;;;;4989345;28;20200;-75
2021/12/07 09:04:05;;;;;;;18.20;5.70;;;4.80;77.20;;;;;;4996578;28;20180;-77
2021/12/07 09:06:31;;;;;;;18.50;6.10;;;4.90;78.30;;;;;;4993331;28;20561;-77
2021/12/07 09:08:57;;;;;;;16.70;6.68;;;4.80;78.10;;;;;;4994261;28;20197;-74
2021/12/07 09:11:24;;;;;;;21.42;5.53;;;4.70;79.40;;;;;;4995437;28;20185;-76
2021/12/07 09:13:51;;;;;;;15.70;4.90;;;4.60;79.60;;;;;;4995630;28;20522;-74
2021/12/07 09:16:18;;;;;;;24.58;5.22;;;4.70;81.70;;;;;;4994704;28;20193;-74
2021/12/07 09:18:45;;;;;;;19.23;5.28;;;4.90;78.60;;;;;;4993817;28;20220;-74
2021/12/07 09:21:10;;;;;;;17.73;4.50;;;5.10;74.80;;;;;;4995631;28;20188;-73
2021/12/07 09:23:36;;;;;;;11.70;3.83;;;5.10;72.10;;;;;;4984032;28;20186;-75
2021/12/07 09:26:04;;;;;;;19.27;5.50;;;5.10;73.90;;;;;;4976194;28;20237;-74
2021/12/07 09:28:30;;;;;;;16.38;4.88;;;5.10;73.70;;;;;;4990529;28;20228;-74
2021/12/07 09:30:55;;;;;;;15.00;5.47;;;5.10;72.90;;;;;;4995620;28;20180;-74
2021/12/07 09:33:25;;;;;;;21.60;5.27;;;5.10;71.40;;;;;;4995266;28;20434;-75
2021/12/07 09:35:52;;;;;;;26.63;6.88;;;5.20;69.80;;;;;;4995933;28;20181;-75
2021/12/07 09:38:18;;;;;;;130.32;57.35;;;5.20;73.20;;;;;;4994887;28;20693;-75
2021/12/07 09:40:45;;;;;;;16.70;3.90;;;5.40;88.50;;;;;;4991020;28;20239;-76
2021/12/07 09:43:12;;;;;;;24.27;4.40;;;5.50;71.00;;;;;;4995130;28;20193;-74
2021/12/07 09:45:40;;;;;;;24.73;4.82;;;5.30;68.20;;;;;;4995899;28;20201;-75
2021/12/07 09:48:08;;;;;;;14.98;4.10;;;5.30;68.30;;;;;;4990997;28;20209;-73
2021/12/07 09:50:36;;;;;;;19.15;5.20;;;5.30;71.50;;;;;;4994879;28;20237;-75
2021/12/07 09:53:07;;;;;;;9.45;3.58;;;5.40;67.40;;;;;;4994253;28;20177;-75
2021/12/07 09:55:36;;;;;;;17.58;5.07;;;5.50;67.00;;;;;;4995086;28;20196;-74
2021/12/07 09:58:02;;;;;;;20.20;4.78;;;5.50;65.80;;;;;;4993853;28;20355;-76
2021/12/07 10:00:28;;;;;;;14.52;5.28;;;5.40;65.50;;;;;;4993514;28;20283;-74
2021/12/07 10:02:54;;;;;;;19.40;5.90;;;5.40;66.00;;;;;;4994635;28;20754;-75
2021/12/07 10:05:23;;;;;;;16.03;5.33;;;5.40;68.10;;;;;;4983985;28;21000;-74
2021/12/07 10:07:51;;;;;;;14.95;4.97;;;5.50;68.50;;;;;;4988407;28;20428;-75
2021/12/07 10:10:20;;;;;;;21.70;5.38;;;5.60;65.60;;;;;;4995240;28;20169;-74
2021/12/07 10:12:46;;;;;;;16.90;4.85;;;5.60;63.50;;;;;;4993237;28;20169;-74
2021/12/07 10:15:12;;;;;;;10.70;4.20;;;5.70;63.60;;;;;;4994308;28;20179;-75
2021/12/07 10:17:38;;;;;;;10.57;4.67;;;5.80;63.40;;;;;;4994770;28;20193;-75
2021/12/07 10:20:23;;;;;;;24.80;5.93;;;5.80;60.30;;;;;;4994754;28;20431;-75
2021/12/07 10:22:51;;;;;;;24.67;5.13;;;5.70;62.60;;;;;;4990791;28;20185;-74
2021/12/07 10:25:27;;;;;;;23.13;5.85;;;5.80;62.60;;;;;;4994713;28;20534;-74
2021/12/07 10:27:53;;;;;;;23.13;5.43;;;5.90;59.60;;;;;;4994738;28;20292;-74
2021/12/07 10:30:22;;;;;;;20.05;5.45;;;5.90;60.90;;;;;;4994793;28;20662;-75
2021/12/07 10:33:05;;;;;;;22.17;5.07;;;5.90;61.90;;;;;;4994607;28;20217;-75
2021/12/07 10:35:33;;;;;;;23.70;6.10;;;5.80;61.20;;;;;;4994927;28;20181;-74
2021/12/07 10:38:16;;;;;;;30.00;6.15;;;5.80;63.40;;;;;;4994252;28;20255;-75
2021/12/07 10:40:59;;;;;;;15.25;5.10;;;5.90;60.90;;;;;;4990121;28;20600;-74
2021/12/07 10:43:43;;;;;;;16.33;4.68;;;5.90;59.00;;;;;;4993899;28;20192;-74
2021/12/07 10:46:33;;;;;;;14.35;5.40;;;6.00;60.30;;;;;;4993998;28;20204;-74
2021/12/07 10:49:15;;;;;;;25.15;6.10;;;6.10;58.90;;;;;;4993452;28;20284;-75
2021/12/07 10:51:53;;;;;;;10.10;4.05;;;6.20;57.60;;;;;;4994450;28;20196;-74
2021/12/07 10:54:21;;;;;;;20.88;5.55;;;6.20;56.80;;;;;;4994124;28;20255;-76
2021/12/07 10:56:46;;;;;;;21.80;5.50;;;6.30;57.50;;;;;;4994635;28;20184;-74
2021/12/07 10:59:13;;;;;;;25.17;5.07;;;6.30;58.20;;;;;;4994934;28;20213;-76
2021/12/07 11:01:41;;;;;;;20.17;4.60;;;6.40;56.80;;;;;;4988549;28;20181;-76
2021/12/07 11:04:16;;;;;;;20.05;4.50;;;6.40;54.90;;;;;;4985134;28;20681;-75
2021/12/07 11:07:13;;;;;;;13.98;4.35;;;6.40;55.90;;;;;;4993230;28;20246;-75
2021/12/07 11:09:42;;;;;;;28.13;6.50;;;6.50;55.80;;;;;;4993039;28;20533;-75
2021/12/07 11:12:14;;;;;;;18.55;5.70;;;6.50;56.90;;;;;;4991749;28;20188;-74
2021/12/07 11:14:51;;;;;;;20.05;4.00;;;6.60;55.80;;;;;;4982888;28;20777;-74
2021/12/07 11:17:22;;;;;;;16.85;4.45;;;6.60;55.90;;;;;;4993182;28;20173;-74
2021/12/07 11:19:48;;;;;;;14.68;3.90;;;6.60;54.50;;;;;;4976011;28;20252;-74
2021/12/07 11:22:16;;;;;;;13.00;3.40;;;6.60;53.20;;;;;;4984046;28;20181;-74
2021/12/07 11:24:44;;;;;;;16.77;5.00;;;6.60;52.50;;;;;;4996806;28;20546;-75
2021/12/07 11:30:19;;;;;;;13.60;3.92;;;6.80;51.90;;;;;;4994061;28;20244;-74
2021/12/07 11:32:54;;;;;;;23.63;4.70;;;6.70;52.90;;;;;;4992290;28;20185;-74
2021/12/07 11:35:26;;;;;;;12.82;4.60;;;6.80;54.20;;;;;;4993023;28;20231;-73
2021/12/07 11:37:53;;;;;;;22.55;5.70;;;7.10;52.40;;;;;;4992257;28;20207;-73
2021/12/07 11:40:28;;;;;;;18.83;5.05;;;7.10;48.90;;;;;;4984510;28;20189;-75
2021/12/07 11:42:54;;;;;;;16.08;5.15;;;7.20;48.40;;;;;;4990972;28;20591;-74
2021/12/07 11:45:27;;;;;;;21.27;4.90;;;7.20;47.80;;;;;;4987928;28;20235;-75
2021/12/07 11:47:56;;;;;;;27.25;6.30;;;6.90;47.00;;;;;;4987015;28;20198;-75
2021/12/07 11:50:23;;;;;;;12.82;4.60;;;7.00;48.00;;;;;;4972959;28;20602;-76
2021/12/07 11:53:11;;;;;;;22.98;4.13;;;7.00;48.70;;;;;;4975904;28;20206;-75
2021/12/07 11:55:40;;;;;;;17.70;4.03;;;6.90;49.10;;;;;;4974280;28;20584;-76
2021/12/07 11:58:08;;;;;;;21.30;4.80;;;7.10;49.50;;;;;;5002064;28;20518;-75
2021/12/07 12:00:53;;;;;;;9.65;3.90;;;7.10;48.60;;;;;;4998704;28;20247;-76
2021/12/07 12:03:22;;;;;;;17.02;4.18;;;7.10;44.90;;;;;;5004339;28;20203;-74
2021/12/07 12:05:49;;;;;;;15.38;3.88;;;7.20;44.00;;;;;;5018074;28;20200;-75
2021/12/07 12:08:20;;;;;;;10.85;3.63;;;7.10;44.00;;;;;;5018948;28;20287;-75
2021/12/07 12:11:27;;;;;;;16.35;3.78;;;7.10;43.60;;;;;;5006418;28;20261;-75
2021/12/07 12:14:13;;;;;;;23.63;4.65;;;7.10;46.00;;;;;;5011307;28;20240;-75
2021/12/07 12:17:11;;;;;;;32.05;4.85;;;6.90;44.70;;;;;;5013027;28;20211;-76
2021/12/07 12:19:55;;;;;;;19.70;3.55;;;6.90;45.80;;;;;;4992982;28;20204;-76
2021/12/07 12:22:32;;;;;;;14.43;3.83;;;7.00;45.40;;;;;;4991235;28;20184;-75
2021/12/07 12:25:06;;;;;;;19.73;3.78;;;7.00;45.50;;;;;;4992957;28;20263;-76
2021/12/07 12:27:34;;;;;;;19.95;5.38;;;7.10;44.00;;;;;;4992886;28;20245;-76
2021/12/07 12:30:15;;;;;;;15.32;3.22;;;7.20;44.60;;;;;;4999142;28;20179;-75
2021/12/07 12:32:47;;;;;;;5.53;2.25;;;7.20;41.90;;;;;;5016265;28;20203;-75
2021/12/07 12:35:14;;;;;;;8.77;2.78;;;7.20;39.80;;;;;;5011768;28;20203;-75
2021/12/07 12:37:46;;;;;;;7.63;2.95;;;7.20;39.80;;;;;;5012214;28;20553;-74
2021/12/07 12:40:22;;;;;;;16.30;3.45;;;7.30;40.00;;;;;;5015382;28;20172;-76
2021/12/07 12:42:51;;;;;;;5.82;2.63;;;7.30;39.70;;;;;;5004273;28;20187;-75
2021/12/07 12:45:23;;;;;;;13.88;2.85;;;7.30;39.10;;;;;;5008609;28;20165;-75
2021/12/07 12:47:54;;;;;;;9.98;2.50;;;7.20;38.90;;;;;;5004965;28;20204;-75
2021/12/07 12:50:30;;;;;;;12.38;3.10;;;7.30;38.30;;;;;;5012531;28;20615;-74
2021/12/07 12:53:16;;;;;;;9.10;3.22;;;7.30;38.00;;;;;;5012415;28;20267;-76
2021/12/07 12:55:44;;;;;;;8.90;3.38;;;7.10;38.10;;;;;;5011485;28;20547;-75
2021/12/07 12:58:20;;;;;;;12.95;2.58;;;7.20;36.70;;;;;;5017414;28;20208;-75
2021/12/07 13:01:04;;;;;;;8.32;3.10;;;7.10;36.30;;;;;;5017406;28;20195;-75
2021/12/07 13:03:42;;;;;;;9.13;2.95;;;7.20;36.80;;;;;;5016747;28;20239;-77
2021/12/07 13:06:10;;;;;;;13.25;2.70;;;7.30;37.00;;;;;;5015273;28;20295;-74
2021/12/07 13:09:10;;;;;;;5.22;2.30;;;7.40;37.00;;;;;;5010976;28;20197;-76
2021/12/07 13:11:38;;;;;;;10.23;2.58;;;7.40;36.40;;;;;;5008820;28;20228;-73
2021/12/07 13:14:29;;;;;;;17.20;2.28;;;7.40;35.80;;;;;;5015089;28;20544;-74
2021/12/07 13:17:24;;;;;;;9.80;2.50;;;7.30;35.10;;;;;;5011454;28;20250;-76
2021/12/07 13:20:08;;;;;;;5.85;1.90;;;7.30;34.60;;;;;;5012260;28;20199;-76
2021/12/07 13:22:52;;;;;;;7.53;2.00;;;7.20;34.20;;;;;;5005393;28;20177;-76
2021/12/07 13:25:24;;;;;;;14.65;2.75;;;7.10;35.50;;;;;;5014848;28;20294;-75
2021/12/07 13:28:12;;;;;;;10.02;1.98;;;7.10;34.70;;;;;;5011467;28;20226;-75
2021/12/07 13:31:04;;;;;;;7.95;1.90;;;7.00;35.40;;;;;;5009069;28;20645;-76
2021/12/07 13:33:35;;;;;;;5.60;1.40;;;6.80;36.20;;;;;;5000366;28;20189;-75
2021/12/07 13:36:21;;;;;;;4.90;1.95;;;6.80;35.20;;;;;;5001761;28;20184;-75
2021/12/07 13:38:47;;;;;;;15.35;2.45;;;6.90;34.80;;;;;;5003117;28;20348;-76
2021/12/07 13:41:15;;;;;;;6.67;2.43;;;6.70;35.50;;;;;;5014053;28;20244;-76
2021/12/07 13:43:44;;;;;;;16.25;2.70;;;6.70;35.40;;;;;;5014995;28;20378;-76
2021/12/07 13:46:19;;;;;;;5.28;2.35;;;6.80;35.40;;;;;;5006271;28;20188;-76
2021/12/07 13:48:49;;;;;;;9.10;1.75;;;6.70;35.40;;;;;;5006508;28;20212;-74
2021/12/07 13:51:16;;;;;;;4.10;1.92;;;6.60;36.10;;;;;;5012470;28;20260;-74
2021/12/07 13:53:44;;;;;;;3.70;1.35;;;6.60;35.60;;;;;;5008321;28;20260;-76
2021/12/07 13:56:10;;;;;;;4.13;2.25;;;6.50;36.20;;;;;;5003373;28;20181;-76
2021/12/07 13:58:53;;;;;;;6.20;2.70;;;6.50;35.90;;;;;;5029064;22;20613;-76
2021/12/07 14:01:20;;;;;;;6.68;1.67;;;6.50;35.70;;;;;;5039751;28;20167;-77
2021/12/07 14:03:46;;;;;;;5.88;2.40;;;6.50;36.00;;;;;;5028882;28;20176;-75
2021/12/07 14:06:12;;;;;;;5.45;1.88;;;6.40;36.20;;;;;;5015744;28;20295;-76
2021/12/07 14:08:38;;;;;;;4.65;2.40;;;6.40;35.50;;;;;;5023559;28;20203;-78
2021/12/07 14:11:04;;;;;;;8.90;2.53;;;6.30;36.30;;;;;;5014086;28;20264;-75
2021/12/07 14:13:30;;;;;;;8.33;3.33;;;6.30;36.70;;;;;;4995718;28;20228;-77
2021/12/07 14:15:56;;;;;;;10.23;2.60;;;6.20;37.70;;;;;;4996159;28;20463;-77
2021/12/07 14:18:25;;;;;;;6.13;2.70;;;6.20;37.30;;;;;;4997672;28;20720;-76
2021/12/07 14:20:57;;;;;;;7.47;2.58;;;6.30;37.60;;;;;;5014543;28;20191;-76
2021/12/07 14:23:34;;;;;;;11.15;2.60;;;6.30;37.60;;;;;;5027541;28;20188;-76
2021/12/07 14:26:13;;;;;;;6.32;2.95;;;6.20;38.20;;;;;;5035378;28;20207;-76
2021/12/07 14:28:44;;;;;;;14.63;3.00;;;6.20;38.20;;;;;;5035883;28;20194;-76
2021/12/07 14:31:27;;;;;;;10.40;3.35;;;6.00;38.70;;;;;;5033961;28;20172;-77
2021/12/07 14:34:08;;;;;;;12.02;2.97;;;6.00;38.30;;;;;;5034094;28;20180;-77
2021/12/07 14:36:41;;;;;;;20.60;2.85;;;6.00;37.60;;;;;;5040547;28;20254;-75
2021/12/07 14:39:19;;;;;;;6.85;2.70;;;5.90;37.40;;;;;;5041601;28;20257;-76
2021/12/07 14:41:51;;;;;;;11.02;1.98;;;5.90;37.70;;;;;;5036522;28;20240;-77
2021/12/07 14:44:31;;;;;;;8.65;2.10;;;5.70;38.10;;;;;;5027884;28;20196;-77
2021/12/07 14:47:04;;;;;;;7.20;2.42;;;5.70;39.00;;;;;;5022938;28;20211;-77